Time;durP1;ratioP1;P1;durP2;ratioP2;P2;SDS_P1;SDS_P2;PMS_P1;PMS_P2;Temp;Humidity;BMP_temperature;BMP_pressure;BME280_temperature;BME280_humidity;BME280_pressure;Samples;Min_cycle;Max_cycle;Signal;HPM_P1;HPM_P2
2021/04/28 00:02:26;;;;;;;24.43;16.17;;;;;;;3.04;53.69;98613.66;124834;1101;64453;-80
2021/04/28 00:04:53;;;;;;;20.27;14.37;;;;;;;3.05;53.85;98606.61;124867;1101;64434;-80
2021/04/28 00:07:20;;;;;;;23.33;14.50;;;;;;;3.05;53.81;98602.22;124860;1096;64320;-80
2021/04/28 00:09:47;;;;;;;20.65;14.95;;;;;;;3.06;53.91;98603.92;124841;1095;64312;-79
2021/04/28 00:12:13;;;;;;;23.90;15.43;;;;;;;3.07;54.01;98591.61;124753;1096;64362;-80
2021/04/28 00:14:40;;;;;;;19.73;13.93;;;;;;;3.08;54.10;98595.94;124734;1097;64461;-80
2021/04/28 00:17:07;;;;;;;23.60;14.97;;;;;;;3.08;54.27;98594.19;124784;1096;64339;-80
2021/04/28 00:19:34;;;;;;;21.30;15.10;;;;;;;3.10;53.91;98585.36;124750;1101;64747;-78
2021/04/28 00:22:01;;;;;;;24.40;15.20;;;;;;;3.11;54.16;98598.47;124778;1101;64422;-80
2021/04/28 00:24:27;;;;;;;21.57;15.40;;;;;;;3.13;53.98;98593.12;124729;1101;64307;-81
2021/04/28 00:26:54;;;;;;;22.03;15.20;;;;;;;3.14;54.18;98594.84;124754;1101;64393;-79
2021/04/28 00:29:21;;;;;;;22.40;16.53;;;;;;;3.15;53.93;98588.65;124759;1101;64329;-80
2021/04/28 00:31:47;;;;;;;23.10;15.03;;;;;;;3.17;54.11;98589.45;124778;1096;64355;-79
2021/04/28 00:34:15;;;;;;;21.13;15.67;;;;;;;3.18;53.88;98585.88;124749;1096;64309;-80
2021/04/28 00:36:42;;;;;;;21.70;14.87;;;;;;;3.16;54.04;98591.23;124818;1101;64323;-80
2021/04/28 00:39:08;;;;;;;19.80;14.60;;;;;;;3.15;54.35;98592.13;124798;1096;64204;-79
2021/04/28 00:41:35;;;;;;;20.90;14.93;;;;;;;3.14;54.41;98587.80;124838;1096;64329;-79
2021/04/28 00:44:02;;;;;;;23.53;14.80;;;;;;;3.14;54.17;98581.69;124852;1101;64326;-80
2021/04/28 00:46:29;;;;;;;22.23;14.67;;;;;;;3.15;54.01;98586.86;124848;1101;64346;-79
2021/04/28 00:48:57;;;;;;;23.17;15.03;;;;;;;3.14;54.14;98592.22;124822;1101;64342;-80
2021/04/28 00:51:24;;;;;;;27.03;15.67;;;;;;;3.12;54.22;98592.27;124770;1096;64425;-80
2021/04/28 00:53:52;;;;;;;22.30;14.20;;;;;;;3.11;54.53;98595.83;124772;1096;64368;-81
2021/04/28 00:56:19;;;;;;;22.90;15.23;;;;;;;3.10;54.14;98595.89;124733;1101;64345;-80
2021/04/28 00:58:45;;;;;;;21.90;13.70;;;;;;;3.10;54.17;98602.00;124780;1101;64332;-80
2021/04/28 01:01:12;;;;;;;20.43;13.37;;;;;;;3.08;53.86;98595.94;124818;1101;64329;-80
2021/04/28 01:03:40;;;;;;;21.90;15.30;;;;;;;3.06;54.47;98595.17;124729;1101;64432;-80
2021/04/28 01:06:08;;;;;;;23.27;15.20;;;;;;;3.05;54.18;98604.86;124781;1101;64371;-80
2021/04/28 01:08:35;;;;;;;22.80;15.45;;;;;;;3.03;54.13;98601.42;124761;1101;64253;-80
2021/04/28 01:11:03;;;;;;;21.73;15.20;;;;;;;3.03;54.47;98598.80;124841;1101;64281;-78
2021/04/28 01:13:31;;;;;;;21.53;15.40;;;;;;;3.01;54.54;98605.89;124810;1101;64275;-80
2021/04/28 01:15:58;;;;;;;22.80;15.73;;;;;;;2.99;54.44;98609.51;124816;1101;64867;-81
2021/04/28 01:18:25;;;;;;;21.40;14.57;;;;;;;2.94;54.36;98601.80;124767;1101;64438;-79
2021/04/28 01:20:52;;;;;;;22.10;15.07;;;;;;;2.92;54.48;98602.78;124799;1101;64306;-80
2021/04/28 01:23:21;;;;;;;20.75;14.70;;;;;;;2.93;54.46;98612.41;124595;1102;64354;-82
2021/04/28 01:25:50;;;;;;;20.33;15.20;;;;;;;2.92;54.48;98602.78;124973;1096;64262;-81
2021/04/28 01:28:22;;;;;;;21.80;15.20;;;;;;;2.93;54.58;98605.36;124960;1097;64346;-79
2021/04/28 01:31:00;;;;;;;27.47;14.90;;;;;;;2.92;54.86;98597.52;124828;1101;64438;-82
2021/04/28 01:33:32;;;;;;;22.87;15.53;;;;;;;2.92;54.39;98608.05;124989;1096;64326;-80
2021/04/28 01:36:00;;;;;;;20.73;14.00;;;;;;;2.91;54.69;98604.56;124841;1096;64246;-82
2021/04/28 01:38:32;;;;;;;20.03;15.03;;;;;;;2.89;54.60;98606.41;124830;1096;64422;-82
2021/04/28 01:41:00;;;;;;;22.30;15.20;;;;;;;2.87;55.04;98595.11;124817;1096;64253;-80
2021/04/28 01:43:26;;;;;;;22.53;15.27;;;;;;;2.85;54.38;98600.42;124893;1096;64348;-80
2021/04/28 01:45:55;;;;;;;21.80;13.93;;;;;;;2.81;54.64;98593.56;124828;1101;64312;-81
2021/04/28 01:48:22;;;;;;;19.30;14.97;;;;;;;2.78;54.80;98596.33;124770;1101;64402;-80
2021/04/28 01:50:51;;;;;;;19.70;14.00;;;;;;;2.75;54.77;98593.83;124746;1096;64745;-80
2021/04/28 01:53:20;;;;;;;21.23;14.43;;;;;;;2.74;55.13;98588.62;124771;1096;64448;-80
2021/04/28 01:55:50;;;;;;;22.90;14.90;;;;;;;2.73;55.26;98592.18;124795;1101;64680;-80
2021/04/28 01:58:18;;;;;;;22.90;15.40;;;;;;;2.70;54.90;98587.90;124785;1096;64365;-80
2021/04/28 02:00:45;;;;;;;24.47;15.57;;;;;;;2.67;54.99;98585.40;124743;1096;64329;-79
2021/04/28 02:03:12;;;;;;;20.33;14.17;;;;;;;2.64;55.15;98582.91;124752;1101;64303;-80
2021/04/28 02:05:40;;;;;;;22.10;15.15;;;;;;;2.61;54.71;98583.88;124701;1101;64329;-80
2021/04/28 02:08:07;;;;;;;28.53;15.67;;;;;;;2.57;55.16;98584.92;124783;1096;64460;-79
2021/04/28 02:10:35;;;;;;;22.83;14.70;;;;;;;2.53;55.39;98582.50;124770;1097;64358;-78
2021/04/28 02:13:03;;;;;;;26.70;17.30;;;;;;;2.48;55.65;98580.05;124789;1101;64349;-79
2021/04/28 02:15:31;;;;;;;25.10;16.17;;;;;;;2.42;55.68;98582.91;124781;1096;64339;-81
2021/04/28 02:18:02;;;;;;;25.15;17.75;;;;;;;2.38;55.58;98576.08;124768;1101;64393;-82
2021/04/28 02:20:29;;;;;;;27.73;17.13;;;;;;;2.33;55.65;98580.66;124892;1101;64456;-80
2021/04/28 02:22:56;;;;;;;60.20;31.73;;;;;;;2.27;56.19;98581.77;124873;1101;64335;-80
2021/04/28 02:25:23;;;;;;;70.47;38.37;;;;;;;2.23;56.07;98588.05;124784;1101;64330;-81
2021/04/28 02:27:52;;;;;;;92.15;47.30;;;;;;;2.19;56.12;98586.48;124845;1096;64358;-79
2021/04/28 02:30:25;;;;;;;171.20;90.45;;;;;;;2.14;56.48;98581.39;124885;1097;64303;-79
2021/04/28 02:32:53;;;;;;;46.23;29.93;;;;;;;2.11;56.63;98580.67;124813;1101;64495;-81
2021/04/28 02:35:23;;;;;;;34.80;24.73;;;;;;;2.09;56.47;98575.46;124909;1096;64336;-81
2021/04/28 02:38:00;;;;;;;26.90;18.87;;;;;;;2.04;56.80;98577.41;124956;1101;64333;-82
2021/04/28 02:40:27;;;;;;;24.07;18.20;;;;;;;2.02;56.72;98575.76;126998;1101;63073;-80
2021/04/28 02:42:54;;;;;;;28.20;17.60;;;;;;;1.98;56.87;98577.66;125072;1097;64329;-80
2021/04/28 02:45:23;;;;;;;28.73;17.40;;;;;;;1.96;57.16;98582.11;124776;1101;64368;-81
2021/04/28 02:47:51;;;;;;;23.13;16.03;;;;;;;1.94;57.43;98574.28;124830;1096;64346;-80
2021/04/28 02:50:23;;;;;;;21.85;17.00;;;;;;;1.91;56.98;98581.44;124817;1097;64278;-80
2021/04/28 02:52:52;;;;;;;28.97;17.03;;;;;;;1.89;57.10;98586.73;124794;1101;64505;-80
2021/04/28 02:55:19;;;;;;;26.53;17.33;;;;;;;1.87;57.39;98587.70;124769;1096;64339;-80
2021/04/28 02:57:47;;;;;;;28.20;18.07;;;;;;;1.83;57.30;98584.35;124745;1096;64338;-79
2021/04/28 03:00:20;;;;;;;26.87;17.13;;;;;;;1.82;57.41;98579.14;124769;1095;64330;-79
2021/04/28 03:02:49;;;;;;;26.47;17.00;;;;;;;1.80;57.37;98581.00;124853;1101;64402;-80
2021/04/28 03:05:19;;;;;;;25.03;16.70;;;;;;;1.78;57.58;98570.53;124900;1096;64342;-79
2021/04/28 03:07:46;;;;;;;25.37;17.13;;;;;;;1.79;57.42;98576.64;124797;1101;64358;-79
2021/04/28 03:10:14;;;;;;;27.83;15.80;;;;;;;1.74;57.88;98577.69;124795;1101;64359;-79
2021/04/28 03:12:44;;;;;;;23.53;16.00;;;;;;;1.72;57.68;98578.66;124801;1096;64278;-80
2021/04/28 03:15:15;;;;;;;27.90;16.80;;;;;;;1.70;57.82;98577.85;124786;1101;64374;-81
2021/04/28 03:17:43;;;;;;;30.20;19.25;;;;;;;1.69;57.72;98576.16;124761;1096;64281;-81
2021/04/28 03:20:11;;;;;;;24.30;16.20;;;;;;;1.67;57.75;98576.20;124763;1097;64314;-80
2021/04/28 03:22:40;;;;;;;27.50;18.17;;;;;;;1.65;57.85;98577.17;124796;1101;64329;-80
2021/04/28 03:25:08;;;;;;;26.53;16.37;;;;;;;1.64;58.12;98580.72;124749;1101;64304;-79
2021/04/28 03:27:36;;;;;;;33.73;21.03;;;;;;;1.64;58.21;98578.09;124896;1101;64246;-79
2021/04/28 03:30:05;;;;;;;25.17;17.60;;;;;;;1.63;58.13;98582.46;124775;1096;64285;-79
2021/04/28 03:32:32;;;;;;;31.17;22.20;;;;;;;1.65;58.09;98579.80;124947;1101;64389;-80
2021/04/28 03:34:59;;;;;;;28.65;19.45;;;;;;;1.65;58.20;98578.02;124892;1097;64400;-80
2021/04/28 03:37:26;;;;;;;25.57;18.37;;;;;;;1.66;58.69;98577.13;124832;1097;64355;-79
2021/04/28 03:39:53;;;;;;;25.50;15.87;;;;;;;1.68;58.30;98583.15;124922;1096;64329;-80
2021/04/28 03:42:22;;;;;;;24.43;16.90;;;;;;;1.70;58.24;98583.11;124897;1101;64266;-80
2021/04/28 03:44:51;;;;;;;30.23;17.25;;;;;;;1.72;58.13;98582.13;124816;1101;64326;-80
2021/04/28 03:47:19;;;;;;;25.03;16.13;;;;;;;1.75;58.28;98591.67;124910;1097;64275;-78
2021/04/28 03:49:46;;;;;;;30.23;19.93;;;;;;;1.81;58.37;98588.80;124800;1101;64330;-78
2021/04/28 03:52:13;;;;;;;25.40;17.20;;;;;;;2.07;57.79;98590.42;124798;1096;64327;-79
2021/04/28 03:54:40;;;;;;;27.87;17.90;;;;;;;2.61;57.45;98594.41;124786;1096;64371;-79
2021/04/28 03:57:08;;;;;;;23.50;16.07;;;;;;;3.11;56.76;98577.41;124839;1101;64329;-79
2021/04/28 03:59:35;;;;;;;23.40;16.63;;;;;;;3.56;55.92;98580.71;124809;1101;64246;-79
2021/04/28 04:02:03;;;;;;;23.07;17.37;;;;;;;3.99;55.52;98581.36;124855;1101;64345;-79
2021/04/28 04:04:30;;;;;;;20.10;17.23;;;;;;;4.37;55.12;98588.31;124802;1096;64342;-80
2021/04/28 04:06:57;;;;;;;24.67;18.33;;;;;;;4.77;54.18;98581.08;124787;1101;64330;-80
2021/04/28 04:09:24;;;;;;;23.50;18.57;;;;;;;5.06;53.35;98569.03;124723;1101;64343;-83
2021/04/28 04:11:52;;;;;;;25.17;17.23;;;;;;;5.40;52.76;98571.72;124913;1097;64333;-81
2021/04/28 04:14:19;;;;;;;25.30;18.15;;;;;;;5.67;52.34;98572.03;124846;1097;64339;-81
2021/04/28 04:16:46;;;;;;;22.13;17.47;;;;;;;5.89;51.62;98567.27;124854;1096;64411;-80
2021/04/28 04:19:13;;;;;;;25.00;18.67;;;;;;;6.18;51.22;98569.28;124927;1096;64346;-81
2021/04/28 04:21:40;;;;;;;24.00;18.50;;;;;;;6.52;50.85;98566.43;124739;1095;64470;-82
2021/04/28 04:24:08;;;;;;;26.23;18.70;;;;;;;6.86;50.05;98568.93;124758;1101;64357;-80
2021/04/28 04:26:34;;;;;;;24.10;18.05;;;;;;;7.13;49.63;98559.33;124752;1097;64335;-81
2021/04/28 04:29:03;;;;;;;24.80;18.70;;;;;;;7.31;49.03;98557.38;124758;1096;64339;-80
2021/04/28 04:31:30;;;;;;;24.13;18.87;;;;;;;7.55;48.83;98560.33;124850;1096;64247;-80
2021/04/28 04:33:57;;;;;;;25.27;18.20;;;;;;;7.84;47.80;98557.67;124777;1101;64419;-79
2021/04/28 04:36:24;;;;;;;24.07;19.97;;;;;;;7.86;48.07;98559.27;124755;1101;64338;-79
2021/04/28 04:38:51;;;;;;;27.13;19.93;;;;;;;7.88;47.16;98560.03;124751;1101;64358;-79
2021/04/28 04:41:18;;;;;;;26.77;19.23;;;;;;;8.17;47.13;98554.69;124738;1097;64279;-80
2021/04/28 04:43:44;;;;;;;23.87;18.80;;;;;;;8.25;46.81;98565.66;124731;1096;64719;-80
2021/04/28 04:46:11;;;;;;;22.13;17.93;;;;;;;8.48;46.37;98558.90;124757;1101;64483;-80
2021/04/28 04:48:38;;;;;;;26.67;18.93;;;;;;;8.68;45.77;98562.88;124794;1097;64427;-80
2021/04/28 04:51:05;;;;;;;23.13;17.80;;;;;;;8.82;45.25;98569.95;124722;1096;64425;-79
2021/04/28 04:53:32;;;;;;;25.40;18.43;;;;;;;8.94;45.16;98557.64;124738;1097;64290;-80
2021/04/28 04:56:00;;;;;;;24.50;18.37;;;;;;;9.13;44.63;98557.24;124763;1096;64419;-81
2021/04/28 04:58:27;;;;;;;24.80;19.10;;;;;;;9.29;44.59;98560.55;124858;1096;64332;-80
2021/04/28 05:00:54;;;;;;;30.20;20.30;;;;;;;9.52;44.27;98572.27;124786;1095;64367;-82
2021/04/28 05:03:20;;;;;;;24.57;18.97;;;;;;;9.73;44.01;98566.41;124745;1101;64328;-80
2021/04/28 05:05:47;;;;;;;24.40;17.67;;;;;;;9.92;43.89;98569.47;124794;1096;64354;-79
2021/04/28 05:08:15;;;;;;;24.80;18.47;;;;;;;10.12;43.29;98576.05;124776;1096;64256;-79
2021/04/28 05:10:43;;;;;;;26.83;17.37;;;;;;;10.31;41.08;98564.94;124780;1097;64450;-79
2021/04/28 05:13:10;;;;;;;21.70;16.35;;;;;;;10.28;42.02;98562.50;124775;1101;64330;-78
2021/04/28 05:15:37;;;;;;;20.67;16.07;;;;;;;10.17;41.34;98565.91;124829;1101;64425;-78
2021/04/28 05:18:05;;;;;;;22.90;16.35;;;;;;;10.02;41.70;98572.33;124772;1101;64269;-79
2021/04/28 05:20:32;;;;;;;19.70;16.30;;;;;;;10.15;41.37;98570.49;124767;1101;64696;-80
2021/04/28 05:22:59;;;;;;;21.83;16.47;;;;;;;10.30;41.39;98564.09;124775;1101;64332;-80
2021/04/28 05:25:26;;;;;;;23.40;15.90;;;;;;;10.52;41.36;98565.18;124776;1095;64336;-80
2021/04/28 05:27:52;;;;;;;23.20;17.73;;;;;;;10.64;41.00;98568.77;124739;1095;64249;-80
2021/04/28 05:30:22;;;;;;;21.05;15.90;;;;;;;10.82;40.85;98566.53;124762;1097;64349;-80
2021/04/28 05:32:49;;;;;;;21.33;16.67;;;;;;;10.84;40.54;98564.61;124782;1096;64303;-80
2021/04/28 05:35:17;;;;;;;21.83;15.93;;;;;;;10.93;40.68;98564.77;124739;1097;64457;-80
2021/04/28 05:37:44;;;;;;;18.77;14.83;;;;;;;11.10;39.91;98563.48;124800;1096;64365;-80
2021/04/28 05:40:12;;;;;;;18.70;14.73;;;;;;;11.14;39.86;98564.13;124775;1096;64389;-79
2021/04/28 05:42:40;;;;;;;21.03;15.47;;;;;;;11.10;39.29;98563.48;124948;1097;64239;-80
2021/04/28 05:45:10;;;;;;;22.00;14.83;;;;;;;10.97;39.65;98568.05;124865;1101;64323;-78
2021/04/28 05:47:37;;;;;;;22.15;17.05;;;;;;;11.03;39.80;98566.73;124871;1101;64326;-79
2021/04/28 05:50:10;;;;;;;19.63;15.83;;;;;;;11.14;39.87;98567.63;124776;1097;64352;-80
2021/04/28 05:52:37;;;;;;;21.30;16.67;;;;;;;11.18;39.62;98563.75;124804;1101;64427;-79
2021/04/28 05:55:07;;;;;;;19.97;16.27;;;;;;;11.21;38.61;98562.66;124763;1096;64320;-80
2021/04/28 05:57:36;;;;;;;18.00;14.47;;;;;;;11.16;39.39;98557.70;124901;1097;64336;-80
2021/04/28 06:00:09;;;;;;;17.77;14.40;;;;;;;11.24;39.57;98565.09;124857;1101;64355;-80
2021/04/28 06:02:36;;;;;;;17.80;14.73;;;;;;;11.40;39.69;98556.75;124876;1096;64310;-80
2021/04/28 06:05:04;;;;;;;19.93;15.83;;;;;;;11.61;38.97;98562.25;124884;1095;64319;-79
2021/04/28 06:07:31;;;;;;;22.17;15.10;;;;;;;11.54;38.61;98561.05;124777;1101;64330;-80
2021/04/28 06:09:58;;;;;;;19.83;15.37;;;;;;;11.36;38.77;98563.31;124768;1095;64332;-80
2021/04/28 06:12:24;;;;;;;17.47;14.47;;;;;;;11.40;38.70;98568.30;124753;1101;64384;-80
2021/04/28 06:14:51;;;;;;;17.53;14.47;;;;;;;11.45;39.16;98559.92;124873;1096;64246;-80
2021/04/28 06:17:18;;;;;;;19.47;15.17;;;;;;;11.53;39.14;98559.33;124747;1101;64357;-79
2021/04/28 06:19:45;;;;;;;19.45;14.80;;;;;;;11.62;38.47;98556.80;124784;1101;64429;-80
2021/04/28 06:22:11;;;;;;;19.70;14.57;;;;;;;11.66;38.38;98552.06;124746;1101;64335;-80
2021/04/28 06:24:38;;;;;;;21.17;15.40;;;;;;;11.62;38.55;98561.30;124757;1095;64334;-79
2021/04/28 06:27:05;;;;;;;18.90;15.43;;;;;;;11.69;38.49;98558.98;124774;1096;64249;-81
2021/04/28 06:29:32;;;;;;;20.97;15.57;;;;;;;11.76;38.75;98550.38;124769;1097;64339;-81
2021/04/28 06:32:00;;;;;;;24.50;17.30;;;;;;;11.90;38.79;98554.67;124809;1096;64330;-80
2021/04/28 06:34:27;;;;;;;21.10;16.17;;;;;;;12.11;38.71;98548.56;124794;1096;64278;-80
2021/04/28 06:36:53;;;;;;;23.60;15.60;;;;;;;12.20;38.84;98537.16;124790;1095;64332;-80
2021/04/28 06:39:20;;;;;;;19.13;15.77;;;;;;;12.25;38.26;98538.47;124768;1095;64331;-82
2021/04/28 06:41:47;;;;;;;20.03;15.73;;;;;;;12.18;38.55;98544.44;124845;1101;64284;-81
2021/04/28 06:44:13;;;;;;;21.23;14.87;;;;;;;12.15;38.34;98540.19;124762;1096;64278;-80
2021/04/28 06:46:40;;;;;;;17.60;14.53;;;;;;;12.13;38.35;98535.94;124744;1097;64343;-80
2021/04/28 06:49:07;;;;;;;18.03;14.47;;;;;;;12.07;38.60;98534.62;124789;1101;64339;-80
2021/04/28 06:51:34;;;;;;;19.17;14.47;;;;;;;12.05;38.34;98528.55;124781;1101;64330;-79
2021/04/28 06:54:00;;;;;;;17.97;13.47;;;;;;;11.90;38.17;98532.44;124818;1101;64361;-80
2021/04/28 06:56:28;;;;;;;18.47;14.00;;;;;;;11.60;38.63;98532.05;124816;1097;64342;-80
2021/04/28 06:58:55;;;;;;;18.00;13.70;;;;;;;11.24;38.96;98540.23;124833;1097;64327;-82
2021/04/28 07:01:22;;;;;;;18.13;15.30;;;;;;;10.96;39.88;98542.36;124869;1096;64371;-83
2021/04/28 07:03:49;;;;;;;18.87;14.67;;;;;;;10.83;40.07;98534.44;124865;1097;64357;-80
2021/04/28 07:06:16;;;;;;;19.57;14.47;;;;;;;10.75;40.51;98529.68;124922;1101;64300;-81
2021/04/28 07:08:43;;;;;;;21.00;14.77;;;;;;;10.73;40.60;98520.10;124877;1096;64348;-82
2021/04/28 07:11:09;;;;;;;21.90;14.40;;;;;;;10.72;40.59;98532.58;124860;1101;64249;-81
2021/04/28 07:13:37;;;;;;;18.90;14.00;;;;;;;10.70;40.26;98533.66;124782;1101;64475;-80
2021/04/28 07:16:04;;;;;;;17.60;13.60;;;;;;;10.54;40.77;98526.80;124881;1097;64329;-81
2021/04/28 07:18:30;;;;;;;21.80;13.80;;;;;;;10.48;40.79;98545.08;124814;1101;64307;-80
2021/04/28 07:20:57;;;;;;;21.85;13.35;;;;;;;10.45;40.93;98534.62;124856;1101;64348;-82
2021/04/28 07:23:24;;;;;;;18.27;13.47;;;;;;;10.51;41.18;98535.03;124881;1101;64275;-80
2021/04/28 07:25:51;;;;;;;15.70;12.05;;;;;;;10.61;40.98;98534.33;124843;1096;64329;-80
2021/04/28 07:28:17;;;;;;;18.50;13.17;;;;;;;10.73;41.34;98531.60;124791;1096;64487;-80
2021/04/28 07:30:44;;;;;;;17.07;12.27;;;;;;;10.83;41.40;98526.44;124832;1101;64393;-80
2021/04/28 07:33:11;;;;;;;25.80;16.80;;;;;;;10.94;41.08;98528.30;124822;1101;64277;-80
2021/04/28 07:35:38;;;;;;;42.55;28.25;;;;;;;10.99;40.99;98532.30;124838;1096;64211;-81
2021/04/28 07:38:05;;;;;;;19.83;13.67;;;;;;;11.17;41.50;98524.72;124851;1101;64374;-81
2021/04/28 07:40:32;;;;;;;16.90;13.37;;;;;;;11.31;40.99;98531.65;124918;1096;64304;-79
2021/04/28 07:42:59;;;;;;;16.07;12.43;;;;;;;11.35;40.68;98530.45;124793;1097;64342;-81
2021/04/28 07:45:26;;;;;;;18.13;12.90;;;;;;;11.30;40.63;98534.45;124841;1096;64329;-79
2021/04/28 07:47:52;;;;;;;16.57;13.30;;;;;;;11.30;40.97;98534.45;124779;1096;64336;-81
2021/04/28 07:50:19;;;;;;;16.65;12.10;;;;;;;11.34;41.18;98527.89;124779;1101;64375;-82
2021/04/28 07:52:50;;;;;;;16.63;12.23;;;;;;;11.43;41.13;98535.20;124908;1101;64359;-80
2021/04/28 07:55:17;;;;;;;14.97;11.33;;;;;;;11.53;41.21;98527.30;124858;1097;64722;-80
2021/04/28 07:57:44;;;;;;;16.53;10.93;;;;;;;11.73;41.49;98528.42;124851;1101;64435;-80
2021/04/28 08:00:13;;;;;;;12.83;10.07;;;;;;;11.90;40.59;98527.97;124828;1097;64349;-78
2021/04/28 08:02:40;;;;;;;14.05;9.60;;;;;;;12.00;40.98;98531.58;124769;1096;64343;-80
2021/04/28 08:05:08;;;;;;;14.47;9.93;;;;;;;12.16;40.51;98528.52;124786;1101;64515;-79
2021/04/28 08:07:36;;;;;;;13.10;10.57;;;;;;;12.28;40.61;98529.36;124783;1101;64239;-79
2021/04/28 08:10:07;;;;;;;14.00;9.73;;;;;;;12.32;40.41;98522.77;124929;1101;64275;-79
2021/04/28 08:12:34;;;;;;;13.10;9.90;;;;;;;12.37;39.36;98511.72;124971;1101;64342;-80
2021/04/28 08:15:02;;;;;;;13.47;9.57;;;;;;;12.36;39.42;98523.39;124834;1101;64377;-79
2021/04/28 08:17:29;;;;;;;14.40;9.50;;;;;;;12.40;39.55;98511.46;124911;1097;64422;-79
2021/04/28 08:19:57;;;;;;;11.63;9.10;;;;;;;12.49;40.15;98508.89;124808;1101;64359;-80
2021/04/28 08:22:25;;;;;;;11.90;9.07;;;;;;;12.72;39.87;98508.81;124826;1101;64247;-79
2021/04/28 08:24:53;;;;;;;12.00;9.00;;;;;;;12.78;39.08;98510.13;124861;1097;64427;-81
2021/04/28 08:27:21;;;;;;;11.83;8.70;;;;;;;12.83;38.67;98506.08;124866;1097;64422;-80
2021/04/28 08:29:48;;;;;;;10.50;8.45;;;;;;;12.91;39.14;98505.44;124845;1101;64429;-80
2021/04/28 08:32:17;;;;;;;11.97;8.87;;;;;;;13.11;39.23;98499.25;124845;1096;64275;-80
2021/04/28 08:34:45;;;;;;;12.07;8.83;;;;;;;13.25;39.46;98507.92;124905;1101;64300;-79
2021/04/28 08:37:12;;;;;;;9.27;7.60;;;;;;;13.28;38.35;98505.02;124802;1101;64422;-80
2021/04/28 08:39:40;;;;;;;11.93;9.17;;;;;;;13.44;38.57;98501.86;124864;1095;64320;-80
2021/04/28 08:42:07;;;;;;;9.40;7.43;;;;;;;13.50;38.38;98499.48;124832;1101;64351;-79
2021/04/28 08:44:35;;;;;;;12.70;8.60;;;;;;;13.52;38.17;98494.02;124824;1096;64275;-80
2021/04/28 08:47:02;;;;;;;12.50;8.13;;;;;;;13.63;38.05;98490.39;124840;1101;64303;-81
2021/04/28 08:49:31;;;;;;;12.10;8.27;;;;;;;13.68;37.93;98490.84;124891;1094;64256;-79
2021/04/28 08:52:00;;;;;;;9.40;7.55;;;;;;;13.67;37.81;98487.32;124873;1096;64428;-80
2021/04/28 08:54:28;;;;;;;8.87;7.20;;;;;;;13.79;37.23;98488.89;124856;1096;64799;-79
2021/04/28 08:56:56;;;;;;;12.53;9.23;;;;;;;13.91;37.06;98478.10;124851;1101;64367;-81
2021/04/28 08:59:22;;;;;;;9.53;7.53;;;;;;;13.96;37.71;98478.55;124888;1095;64329;-80
2021/04/28 09:01:50;;;;;;;9.63;7.60;;;;;;;14.10;37.84;98482.66;124782;1101;64409;-80
2021/04/28 09:04:19;;;;;;;10.60;7.77;;;;;;;14.21;37.34;98486.05;124705;1101;64719;-80
2021/04/28 09:06:46;;;;;;;9.80;7.87;;;;;;;14.19;36.91;98473.78;124894;1096;64387;-81
2021/04/28 09:12:03;;;;;;;9.67;7.40;;;;;;;14.27;36.68;98472.13;124780;1101;64326;-81
2021/04/28 09:14:33;;;;;;;8.67;7.77;;;;;;;14.38;37.03;98465.78;124946;1101;64323;-80
2021/04/28 09:17:03;;;;;;;11.05;5.95;;;;;;;14.50;35.04;98461.12;124931;1096;64425;-79
2021/04/28 09:19:39;;;;;;;10.75;7.70;;;;;;;14.41;35.23;98476.22;124897;1101;64398;-80
2021/04/28 09:22:09;;;;;;;8.67;6.47;;;;;;;14.42;35.84;98458.30;124876;1096;64303;-80
2021/04/28 09:24:45;;;;;;;;;;;;;;;14.56;35.84;98454.38;124909;1101;64364;-80
2021/04/28 09:27:33;;;;;;;7.93;6.20;;;;;;;14.59;34.40;98456.80;124860;1096;64358;-79
2021/04/28 09:30:03;;;;;;;11.20;7.25;;;;;;;14.45;34.04;98447.28;124850;1101;64367;-80
2021/04/28 09:32:32;;;;;;;11.17;7.17;;;;;;;14.44;34.44;98442.92;124870;1101;64320;-80
2021/04/28 09:35:19;;;;;;;7.73;6.87;;;;;;;14.48;34.44;98449.68;124885;1096;64300;-81
2021/04/28 09:38:04;;;;;;;11.60;7.90;;;;;;;14.54;35.27;98448.33;124883;1101;65567;-80
2021/04/28 09:40:49;;;;;;;10.73;9.57;;;;;;;14.64;34.83;98441.97;124753;1101;64419;-80
2021/04/28 09:43:16;;;;;;;11.53;8.10;;;;;;;14.74;34.60;98431.21;124901;1101;64473;-82
2021/04/28 09:45:44;;;;;;;15.73;9.60;;;;;;;14.76;33.95;98433.77;124872;1101;64404;-82
2021/04/28 09:48:19;;;;;;;11.57;7.23;;;;;;;14.71;33.56;98429.66;124998;1096;64427;-80
2021/04/28 09:50:47;;;;;;;12.13;6.73;;;;;;;14.78;34.19;98435.31;124818;1101;64336;-84
2021/04/28 09:53:28;;;;;;;9.63;6.37;;;;;;;14.85;33.45;98417.66;125036;1096;64686;-82
2021/04/28 09:55:55;;;;;;;10.43;7.07;;;;;;;14.85;33.81;98427.53;124827;1101;64437;-85
2021/04/28 09:58:48;;;;;;;11.13;6.97;;;;;;;14.99;34.00;98412.84;124838;1096;64475;-82
2021/04/28 10:01:31;;;;;;;9.53;6.33;;;;;;;15.15;33.21;98413.07;124842;1101;64326;-81
2021/04/28 10:03:58;;;;;;;13.93;6.87;;;;;;;15.07;32.71;98400.38;124875;1101;64413;-80
2021/04/28 10:06:49;;;;;;;9.57;6.73;;;;;;;15.15;33.33;98405.02;124855;1101;64326;-80
2021/04/28 10:09:26;;;;;;;11.03;5.83;;;;;;;15.30;33.08;98405.41;124902;1095;64333;-80
2021/04/28 10:11:53;;;;;;;60.43;11.67;;;;;;;15.24;33.01;98395.23;124808;1096;64641;-80
2021/04/28 10:14:20;;;;;;;14.10;8.07;;;;;;;15.30;33.03;98397.34;124905;1101;64368;-80
2021/04/28 10:16:48;;;;;;;20.27;8.43;;;;;;;15.41;32.51;98388.25;124857;1101;64390;-79
2021/04/28 10:19:19;;;;;;;9.87;6.63;;;;;;;15.41;32.99;98382.88;124739;1101;64320;-80
2021/04/28 10:21:48;;;;;;;8.80;6.67;;;;;;;15.52;32.75;98370.09;124829;1096;64397;-80
2021/04/28 10:24:17;;;;;;;12.55;6.80;;;;;;;15.51;32.54;98381.84;124875;1096;64406;-80
2021/04/28 10:26:46;;;;;;;16.08;6.83;;;;;;;15.46;32.80;98373.39;124953;1096;64315;-78
2021/04/28 10:29:18;;;;;;;13.33;8.73;;;;;;;15.52;32.88;98374.63;124936;1096;64306;-80
2021/04/28 10:31:51;;;;;;;10.23;6.10;;;;;;;15.53;32.05;98370.93;124935;1096;64296;-80
2021/04/28 10:34:34;;;;;;;9.00;6.40;;;;;;;15.53;32.28;98369.12;124889;1096;64378;-80
2021/04/28 10:37:04;;;;;;;9.50;6.33;;;;;;;15.58;32.07;98368.64;124963;1101;64495;-80
2021/04/28 10:39:33;;;;;;;13.70;6.30;;;;;;;15.54;31.39;98370.80;124853;1101;64335;-80
2021/04/28 10:42:01;;;;;;;10.05;6.40;;;;;;;15.55;32.41;98359.05;124917;1101;64326;-80
2021/04/28 10:44:31;;;;;;;8.93;7.70;;;;;;;15.75;32.41;98362.51;124813;1101;64319;-81
2021/04/28 10:47:14;;;;;;;12.87;8.20;;;;;;;15.90;32.36;98364.66;124803;1096;64393;-81
2021/04/28 10:50:23;;;;;;;9.07;6.27;;;;;;;16.06;32.46;98361.30;124833;1101;64479;-79
2021/04/28 10:53:02;;;;;;;8.47;6.03;;;;;;;16.08;31.51;98362.84;124701;1096;64274;-82
2021/04/28 10:55:40;;;;;;;8.05;5.85;;;;;;;16.01;32.12;98351.87;124920;1101;64322;-81
2021/04/28 10:58:26;;;;;;;10.47;7.17;;;;;;;15.99;31.68;98353.02;124817;1095;64322;-80
2021/04/28 11:01:04;;;;;;;12.33;7.07;;;;;;;15.95;31.34;98351.62;124860;1101;64367;-80
2021/04/28 11:03:35;;;;;;;12.90;6.50;;;;;;;16.01;31.45;98348.34;124883;1101;64472;-80
2021/04/28 11:06:18;;;;;;;7.63;5.63;;;;;;;16.00;31.64;98349.31;124922;1101;64355;-80
2021/04/28 11:09:03;;;;;;;7.80;5.83;;;;;;;15.94;30.82;98352.63;124942;1096;64331;-81
2021/04/28 11:11:33;;;;;;;8.67;6.50;;;;;;;15.88;30.85;98337.97;124913;1095;64326;-81
2021/04/28 11:14:10;;;;;;;6.40;5.23;;;;;;;15.83;31.36;98342.11;124869;1101;64331;-81
2021/04/28 11:16:50;;;;;;;8.63;6.20;;;;;;;15.88;31.39;98342.50;124912;1096;64811;-80
2021/04/28 11:19:23;;;;;;;8.20;6.30;;;;;;;16.04;31.57;98342.66;124765;1101;64300;-80
2021/04/28 11:22:15;;;;;;;7.03;5.97;;;;;;;16.11;31.14;98337.49;124875;1101;64355;-79
2021/04/28 11:24:57;;;;;;;7.90;5.57;;;;;;;16.10;31.09;98325.91;124809;1096;64285;-80
2021/04/28 11:27:57;;;;;;;6.97;5.90;;;;;;;16.06;30.78;98332.60;124747;1095;64476;-79
2021/04/28 11:30:24;;;;;;;;;;;;;;;16.08;31.20;98327.05;124959;1101;64355;-81